Time;durP1;ratioP1;P1;durP2;ratioP2;P2;SDS_P1;SDS_P2;PMS_P1;PMS_P2;Temp;Humidity;BMP_temperature;BMP_pressure;BME280_temperature;BME280_humidity;BME280_pressure;Samples;Min_cycle;Max_cycle;Signal;HPM_P1;HPM_P2
2021/08/14 00:01:30;;;;;;;28.83;10.20;;;;;;;23.37;76.89;100496.91;2853743;83;21083;-65
2021/08/14 00:05:32;;;;;;;10.05;8.70;;;;;;;23.39;76.65;100508.92;2864818;82;21008;-65
2021/08/14 00:09:36;;;;;;;14.47;9.70;;;;;;;23.38;76.70;100501.80;2900846;82;21022;-65
2021/08/14 00:13:38;;;;;;;11.00;7.90;;;;;;;23.33;76.58;100498.88;2900895;82;21066;-65
2021/08/14 00:17:40;;;;;;;11.05;8.75;;;;;;;23.29;76.73;100505.76;2900198;82;21043;-64
2021/08/14 00:21:42;;;;;;;16.40;10.43;;;;;;;23.22;77.03;100509.27;2900299;82;20967;-65
2021/08/14 00:25:44;;;;;;;12.40;8.83;;;;;;;23.16;77.15;100510.06;2900880;82;21023;-64
2021/08/14 00:29:46;;;;;;;10.68;7.78;;;;;;;23.10;77.61;100508.17;2920010;81;20993;-64
2021/08/14 00:33:48;;;;;;;10.88;8.68;;;;;;;23.06;77.60;100513.16;2922300;81;21025;-65
2021/08/14 00:37:49;;;;;;;13.40;8.98;;;;;;;23.02;77.58;100513.80;2914390;81;21016;-64
2021/08/14 00:41:51;;;;;;;9.20;8.30;;;;;;;23.00;77.81;100522.66;2903189;82;21064;-64
2021/08/14 00:45:53;;;;;;;12.73;8.58;;;;;;;22.95;77.96;100517.29;2897861;80;21004;-64
2021/08/14 00:49:56;;;;;;;11.03;8.98;;;;;;;22.92;78.21;100508.20;2898177;81;21003;-64
2021/08/14 00:53:57;;;;;;;15.83;10.23;;;;;;;22.90;78.50;100507.58;2927550;81;20935;-64
2021/08/14 00:57:59;;;;;;;14.30;9.38;;;;;;;22.91;78.66;100506.53;2923701;81;20984;-64
2021/08/14 01:02:08;;;;;;;15.98;8.95;;;;;;;22.91;78.57;100505.72;2873762;82;21024;-64
2021/08/14 01:06:09;;;;;;;9.63;7.70;;;;;;;22.89;78.71;100503.70;2861515;83;20996;-64
2021/08/14 01:10:11;;;;;;;14.38;8.33;;;;;;;22.86;78.96;100510.38;2883273;82;20999;-64
2021/08/14 01:14:13;;;;;;;12.68;8.50;;;;;;;22.87;79.02;100502.56;2877757;82;21071;-65
2021/08/14 01:18:17;;;;;;;9.23;8.33;;;;;;;22.90;78.92;100504.05;2871430;82;21141;-64
2021/08/14 01:22:19;;;;;;;12.40;8.63;;;;;;;22.88;78.90;100505.59;2861449;83;20995;-64
2021/08/14 01:26:23;;;;;;;11.95;8.75;;;;;;;22.85;79.05;100503.28;2852000;83;21014;-64
2021/08/14 01:30:25;;;;;;;10.72;7.87;;;;;;;22.78;79.56;100499.69;2816093;84;20975;-64
2021/08/14 01:34:28;;;;;;;11.48;9.05;;;;;;;22.76;80.11;100501.27;2818384;83;21026;-64
2021/08/14 01:38:30;;;;;;;8.68;7.72;;;;;;;22.77;80.55;100503.44;2851492;83;21031;-64
2021/08/14 01:42:31;;;;;;;10.30;8.00;;;;;;;22.84;80.66;100492.13;2861433;83;20975;-64
2021/08/14 01:46:37;;;;;;;12.35;8.25;;;;;;;22.91;80.66;100495.69;2861346;83;21079;-64
2021/08/14 01:50:39;;;;;;;9.23;8.30;;;;;;;22.95;80.66;100502.91;2861186;83;21047;-64
2021/08/14 01:54:41;;;;;;;11.05;9.13;;;;;;;22.96;80.66;100497.27;2862834;83;21003;-64
2021/08/14 01:58:43;;;;;;;8.43;7.40;;;;;;;23.00;80.61;100503.12;2872905;82;20925;-65
2021/08/14 02:02:45;;;;;;;8.55;7.60;;;;;;;23.06;80.58;100496.06;2867633;82;21035;-64
2021/08/14 02:06:48;;;;;;;11.05;7.92;;;;;;;23.11;80.45;100496.28;2884928;81;21066;-64
2021/08/14 02:10:50;;;;;;;10.10;8.03;;;;;;;23.12;80.47;100499.30;2904934;81;20974;-64
2021/08/14 02:14:54;;;;;;;13.83;9.63;;;;;;;23.12;80.70;100493.88;2906994;81;21014;-64
2021/08/14 02:18:58;;;;;;;9.23;8.23;;;;;;;23.13;80.78;100491.48;2889265;81;21034;-64
2021/08/14 02:23:00;;;;;;;12.88;9.08;;;;;;;23.18;80.83;100492.23;2889373;81;20982;-64
2021/08/14 02:27:03;;;;;;;9.35;7.62;;;;;;;23.19;80.91;100486.62;2889611;81;20970;-64
2021/08/14 02:31:13;;;;;;;11.55;8.75;;;;;;;23.15;81.42;100483.97;2889704;82;21046;-65
2021/08/14 02:35:15;;;;;;;9.48;8.43;;;;;;;23.11;82.08;100490.34;2889521;82;21006;-64
2021/08/14 02:39:18;;;;;;;9.95;8.45;;;;;;;23.14;82.38;100489.08;2889372;82;21045;-64
2021/08/14 02:43:20;;;;;;;10.25;8.93;;;;;;;23.14;82.53;100486.38;2889549;82;21006;-65
2021/08/14 02:47:31;;;;;;;24.60;10.10;;;;;;;23.13;82.82;100478.45;2910659;80;21037;-65
2021/08/14 02:51:33;;;;;;;18.20;10.65;;;;;;;23.19;82.92;100479.83;2907304;82;20998;-64
2021/08/14 02:55:37;;;;;;;10.15;8.98;;;;;;;23.29;82.69;100484.05;2881066;81;21061;-64
2021/08/14 02:59:39;;;;;;;11.70;9.40;;;;;;;23.32;82.37;100486.34;2857469;83;20975;-65
2021/08/14 03:03:41;;;;;;;11.20;9.63;;;;;;;23.23;82.49;100506.87;2857594;83;20974;-65
2021/08/14 03:07:42;;;;;;;15.60;10.00;;;;;;;22.97;82.56;100505.72;2857518;83;20998;-64
2021/08/14 03:11:44;;;;;;;12.35;9.60;;;;;;;22.66;82.90;100504.34;2857573;83;21049;-65
2021/08/14 03:15:46;;;;;;;14.13;9.88;;;;;;;22.37;83.50;100506.22;2860604;82;21010;-64
2021/08/14 03:19:52;;;;;;;10.55;9.45;;;;;;;22.31;83.96;100507.02;2904646;82;20952;-64
2021/08/14 03:23:53;;;;;;;11.05;9.75;;;;;;;22.30;84.15;100516.19;2906627;82;21045;-65
2021/08/14 03:27:55;;;;;;;13.22;10.63;;;;;;;22.34;83.98;100522.05;2907251;82;21958;-65
2021/08/14 03:31:58;;;;;;;11.90;8.98;;;;;;;22.33;83.83;100526.62;2907537;82;21021;-65
2021/08/14 03:36:00;;;;;;;11.90;9.90;;;;;;;22.31;83.79;100529.23;2907244;82;20994;-65
2021/08/14 03:40:02;;;;;;;14.45;11.85;;;;;;;22.30;83.80;100532.44;2907515;82;21010;-65
2021/08/14 03:44:06;;;;;;;12.93;10.25;;;;;;;22.29;83.71;100532.63;2907085;82;20995;-65
2021/08/14 03:48:08;;;;;;;28.50;12.58;;;;;;;22.26;83.37;100536.59;2892114;82;20988;-65
2021/08/14 03:52:11;;;;;;;15.78;12.13;;;;;;;22.23;83.29;100541.87;2899388;81;21027;-65
2021/08/14 03:56:13;;;;;;;32.70;14.18;;;;;;;22.24;83.00;100548.96;2940550;80;21003;-66
2021/08/14 04:00:15;;;;;;;14.30;11.53;;;;;;;22.26;82.82;100551.48;2940387;81;21289;-65
2021/08/14 04:04:17;;;;;;;22.55;12.60;;;;;;;22.25;82.45;100552.53;2940613;81;20984;-65
2021/08/14 04:08:58;;;;;;;18.48;12.50;;;;;;;22.22;82.45;100559.16;2924161;81;20951;-65
2021/08/14 04:13:00;;;;;;;12.85;10.88;;;;;;;22.19;82.44;100558.20;2903316;82;20999;-65
2021/08/14 04:17:04;;;;;;;14.00;11.93;;;;;;;22.17;82.56;100558.07;2903296;82;21027;-65
2021/08/14 04:21:06;;;;;;;28.75;12.60;;;;;;;22.22;82.59;100562.41;2903281;82;21034;-64
2021/08/14 04:25:09;;;;;;;16.90;12.28;;;;;;;22.30;82.36;100569.02;2903212;82;21006;-66
2021/08/14 04:29:11;;;;;;;16.87;12.05;;;;;;;22.37;82.22;100571.25;2903162;82;21003;-66
2021/08/14 04:33:13;;;;;;;13.60;12.18;;;;;;;22.53;81.89;100573.38;2903286;82;20971;-66
2021/08/14 04:37:21;;;;;;;19.75;13.30;;;;;;;22.75;80.41;100574.16;2903359;81;21003;-65
2021/08/14 04:41:22;;;;;;;13.53;11.95;;;;;;;22.74;79.90;100579.77;2866857;82;20971;-66
2021/08/14 04:45:25;;;;;;;15.28;11.73;;;;;;;22.58;80.28;100586.34;2860384;83;21079;-66
2021/08/14 04:49:27;;;;;;;16.80;11.73;;;;;;;22.47;81.01;100595.87;2870369;83;21066;-65
2021/08/14 04:53:29;;;;;;;18.67;12.78;;;;;;;22.35;81.67;100607.20;2866634;83;21000;-67
2021/08/14 04:57:37;;;;;;;14.85;12.18;;;;;;;22.34;81.55;100605.52;2874597;83;20930;-66
2021/08/14 05:01:38;;;;;;;17.55;11.85;;;;;;;22.36;81.36;100608.05;2874308;83;20955;-67
2021/08/14 05:05:42;;;;;;;19.23;12.70;;;;;;;22.57;81.49;100623.45;2874396;83;20994;-66
2021/08/14 05:09:50;;;;;;;14.28;10.80;;;;;;;23.05;80.09;100627.31;2874533;83;20966;-66
2021/08/14 05:13:52;;;;;;;17.65;13.13;;;;;;;23.27;78.69;100632.67;2874555;83;21006;-65
2021/08/14 05:17:54;;;;;;;15.95;11.48;;;;;;;23.57;77.96;100627.77;2874548;83;21021;-68
2021/08/14 05:21:55;;;;;;;15.18;11.78;;;;;;;23.90;76.21;100636.55;2874298;83;20978;-66
2021/08/14 05:26:12;;;;;;;15.93;12.25;;;;;;;24.10;75.51;100651.53;2873640;83;21244;-65
2021/08/14 05:30:14;;;;;;;19.37;12.28;;;;;;;24.35;75.06;100650.10;2866544;83;20968;-66
2021/08/14 05:34:16;;;;;;;17.10;13.65;;;;;;;24.53;74.10;100646.23;2868621;83;20962;-67
2021/08/14 05:38:18;;;;;;;15.68;12.35;;;;;;;24.65;73.26;100646.43;2846155;83;21020;-66
2021/08/14 05:42:20;;;;;;;17.00;13.20;;;;;;;24.73;72.82;100658.13;2868473;83;21026;-66
2021/08/14 05:46:21;;;;;;;16.85;13.38;;;;;;;24.76;73.17;100657.73;2883225;82;21045;-66
2021/08/14 05:50:24;;;;;;;12.63;11.08;;;;;;;25.01;72.71;100656.55;2877976;82;20974;-67
2021/08/14 05:54:25;;;;;;;13.98;11.68;;;;;;;25.26;71.50;100650.42;2880677;82;21030;-66
2021/08/14 05:58:27;;;;;;;14.38;12.43;;;;;;;25.37;70.58;100663.89;2900730;82;21015;-66
2021/08/14 06:02:31;;;;;;;23.87;11.80;;;;;;;25.41;70.68;100668.36;2861916;82;21058;-66
2021/08/14 06:06:33;;;;;;;23.80;11.85;;;;;;;25.49;70.51;100670.89;2891468;82;21031;-66
2021/08/14 06:10:35;;;;;;;22.60;12.33;;;;;;;25.61;69.92;100669.69;2900404;82;20999;-67
2021/08/14 06:14:37;;;;;;;12.95;11.50;;;;;;;25.79;69.33;100680.70;2903878;82;21058;-68
2021/08/14 06:18:47;;;;;;;17.35;10.43;;;;;;;25.99;69.00;100681.11;2873083;82;21007;-66
2021/08/14 06:22:48;;;;;;;14.05;9.90;;;;;;;26.08;68.51;100679.78;2875672;82;21042;-66
2021/08/14 06:26:50;;;;;;;13.32;10.78;;;;;;;26.33;67.89;100676.82;2880744;82;20990;-67
2021/08/14 06:30:52;;;;;;;18.40;11.25;;;;;;;26.42;67.52;100667.84;2880532;82;21057;-67
2021/08/14 06:34:54;;;;;;;13.13;10.53;;;;;;;26.52;66.95;100668.16;2889643;82;21009;-70
2021/08/14 06:38:56;;;;;;;11.83;9.68;;;;;;;26.59;67.06;100663.50;2880768;82;21563;-66
2021/08/14 06:42:58;;;;;;;18.20;11.53;;;;;;;26.62;66.84;100681.30;2873045;82;21057;-67
2021/08/14 06:47:01;;;;;;;14.33;10.63;;;;;;;26.57;67.06;100686.08;2858172;82;20979;-66
2021/08/14 06:51:03;;;;;;;14.03;10.65;;;;;;;26.62;66.98;100684.87;2902088;80;21096;-67
2021/08/14 06:55:07;;;;;;;20.15;9.75;;;;;;;26.81;66.89;100690.38;2874070;82;20985;-66
2021/08/14 06:59:09;;;;;;;13.93;9.95;;;;;;;27.05;65.85;100696.04;2853246;83;21028;-67
2021/08/14 07:03:10;;;;;;;11.22;9.50;;;;;;;27.11;64.89;100692.95;2868159;82;21004;-67
2021/08/14 07:07:17;;;;;;;15.90;10.98;;;;;;;27.07;65.20;100688.45;2870876;81;21331;-68
2021/08/14 07:11:20;;;;;;;12.33;10.05;;;;;;;27.10;65.53;100696.19;2865816;82;21059;-68
2021/08/14 07:15:23;;;;;;;10.48;8.78;;;;;;;27.13;65.03;100689.45;2866398;82;21009;-67
2021/08/14 07:19:24;;;;;;;10.63;9.10;;;;;;;27.28;64.19;100683.09;2900081;80;21040;-66
2021/08/14 07:23:27;;;;;;;10.10;7.72;;;;;;;27.25;63.41;100690.90;2882403;82;21064;-68
2021/08/14 07:27:28;;;;;;;16.12;7.87;;;;;;;27.40;63.66;100694.09;2844375;83;21034;-68
2021/08/14 07:31:40;;;;;;;10.88;7.78;;;;;;;27.49;61.89;100703.62;2854127;82;21026;-68
2021/08/14 07:35:44;;;;;;;12.70;7.12;;;;;;;27.64;62.20;100701.92;2890793;82;21547;-66
2021/08/14 07:39:45;;;;;;;12.63;7.53;;;;;;;27.76;60.31;100699.76;2893515;82;21085;-68
2021/08/14 07:43:48;;;;;;;7.70;6.42;;;;;;;27.70;60.39;100696.05;2893032;81;20994;-65
2021/08/14 07:47:51;;;;;;;5.75;4.67;;;;;;;27.65;60.05;100694.55;2884582;81;21002;-69
2021/08/14 07:51:53;;;;;;;8.45;6.83;;;;;;;27.84;57.54;100693.14;2869090;82;21023;-69
2021/08/14 07:55:55;;;;;;;10.10;7.30;;;;;;;27.69;57.42;100690.83;2914981;81;21030;-68
2021/08/14 08:00:05;;;;;;;8.28;6.45;;;;;;;27.50;59.59;100689.45;2869583;82;20973;-68
2021/08/14 08:04:07;;;;;;;7.50;5.97;;;;;;;27.44;59.80;100689.83;2911671;81;20982;-67
2021/08/14 08:08:08;;;;;;;15.63;7.62;;;;;;;27.33;59.71;100686.52;2904895;81;20973;-69
2021/08/14 08:12:11;;;;;;;9.83;7.60;;;;;;;27.25;61.52;100689.02;2882940;80;20995;-67
2021/08/14 08:16:13;;;;;;;7.85;7.05;;;;;;;27.22;61.32;100688.11;2914716;81;21034;-68
2021/08/14 08:20:16;;;;;;;9.78;7.60;;;;;;;27.03;61.00;100685.88;2915296;81;21034;-70
2021/08/14 08:24:18;;;;;;;10.53;7.67;;;;;;;27.06;61.77;100679.45;2910978;81;21029;-68
2021/08/14 08:28:22;;;;;;;12.33;7.62;;;;;;;27.50;61.62;100678.52;2888387;81;20989;-67
2021/08/14 08:32:31;;;;;;;14.87;9.10;;;;;;;27.94;60.45;100678.40;2867299;82;21012;-68
2021/08/14 08:36:33;;;;;;;12.60;7.47;;;;;;;27.97;59.88;100686.13;2884111;81;21046;-67
2021/08/14 08:40:41;;;;;;;19.17;7.67;;;;;;;27.90;60.12;100687.59;2916784;81;20989;-68
2021/08/14 08:44:43;;;;;;;11.43;6.85;;;;;;;27.89;59.87;100687.80;2917433;81;21032;-68
2021/08/14 08:48:50;;;;;;;11.88;7.53;;;;;;;27.73;60.54;100686.05;2896974;79;20981;-68
2021/08/14 08:52:53;;;;;;;13.83;6.83;;;;;;;27.69;60.32;100678.53;2875615;83;20983;-68
2021/08/14 08:56:54;;;;;;;10.55;7.08;;;;;;;27.68;60.28;100667.30;2856047;83;21057;-68
2021/08/14 09:01:00;;;;;;;10.03;6.25;;;;;;;27.73;60.93;100670.17;2870049;83;20970;-68
2021/08/14 09:05:15;;;;;;;9.88;7.17;;;;;;;27.96;60.06;100668.06;2877270;82;21014;-68
2021/08/14 09:09:17;;;;;;;11.15;7.83;;;;;;;28.04;59.84;100665.53;2877460;81;21097;-68
2021/08/14 09:13:22;;;;;;;8.98;7.58;;;;;;;28.08;60.70;100671.64;2876923;83;21372;-67
2021/08/14 09:17:28;;;;;;;;;;;;;;;28.25;59.60;100676.48;2873500;83;21088;-68
2021/08/14 09:21:34;;;;;;;10.58;7.50;;;;;;;28.13;59.93;100671.50;2875982;82;20097;-67
2021/08/14 09:25:50;;;;;;;10.50;7.95;;;;;;;28.12;60.82;100672.58;2881550;81;20990;-66
2021/08/14 09:29:54;;;;;;;10.70;8.85;;;;;;;28.21;60.83;100674.77;2883937;82;21017;-67
2021/08/14 09:34:01;;;;;;;13.80;8.33;;;;;;;28.36;60.41;100673.47;2883214;81;21039;-68
2021/08/14 09:38:07;;;;;;;14.07;8.38;;;;;;;28.43;61.10;100666.52;2868837;83;21067;-69
2021/08/14 09:42:09;;;;;;;16.40;8.08;;;;;;;28.41;59.76;100665.92;2874481;83;21027;-68
2021/08/14 09:46:12;;;;;;;8.65;7.62;;;;;;;28.38;60.64;100664.48;2874558;83;20999;-68
2021/08/14 09:50:38;;;;;;;12.82;8.08;;;;;;;28.54;60.05;100662.98;2867823;83;21051;-67
2021/08/14 09:54:42;;;;;;;13.98;8.25;;;;;;;28.65;59.23;100659.39;2859657;82;21073;-68
2021/08/14 09:58:44;;;;;;;12.27;9.60;;;;;;;28.71;59.60;100657.62;2860429;83;21093;-66
2021/08/14 10:02:48;;;;;;;13.15;9.10;;;;;;;28.67;60.24;100654.22;2860296;81;21002;-69
2021/08/14 10:06:56;;;;;;;13.15;10.68;;;;;;;28.66;60.02;100642.45;2858739;83;21009;-68
2021/08/14 10:10:58;;;;;;;13.80;10.68;;;;;;;28.71;60.04;100647.22;2895292;81;21058;-66
2021/08/14 10:15:00;;;;;;;11.08;9.28;;;;;;;28.75;60.55;100656.61;2872858;81;21052;-66
2021/08/14 10:19:02;;;;;;;13.75;9.30;;;;;;;28.73;59.60;100649.18;2859842;83;21041;-66
2021/08/14 10:23:07;;;;;;;13.28;9.20;;;;;;;28.88;59.60;100641.32;2881010;81;21480;-65
2021/08/14 10:27:19;;;;;;;11.10;9.58;;;;;;;29.02;60.18;100635.08;2833458;83;21086;-67
2021/08/14 10:31:35;;;;;;;13.95;9.00;;;;;;;29.18;59.60;100622.53;2795231;83;21027;-67
2021/08/14 10:35:38;;;;;;;12.33;8.48;;;;;;;29.24;57.89;100615.26;2839001;83;21022;-66
2021/08/14 10:39:53;;;;;;;13.03;9.00;;;;;;;29.24;57.89;100615.26;2872876;82;21097;-66
2021/08/14 10:43:59;;;;;;;8.70;7.75;;;;;;;29.27;57.35;100609.81;2840549;82;21013;-66
2021/08/14 10:48:05;;;;;;;12.65;8.48;;;;;;;29.21;56.88;100608.34;2877327;81;21022;-65
2021/08/14 10:52:09;;;;;;;9.13;8.10;;;;;;;29.26;56.45;100606.25;2882654;81;20931;-66
2021/08/14 10:56:11;;;;;;;9.05;8.05;;;;;;;29.37;56.91;100605.92;2871818;82;21056;-66
2021/08/14 11:00:20;;;;;;;11.75;8.68;;;;;;;29.63;56.93;100602.31;2870869;82;20994;-67
2021/08/14 11:04:46;;;;;;;10.35;8.28;;;;;;;29.76;55.64;100599.80;2864676;82;21002;-67
2021/08/14 11:08:48;;;;;;;9.88;7.58;;;;;;;29.44;55.40;100594.30;2865982;81;20974;-66
2021/08/14 11:12:53;;;;;;;10.68;7.25;;;;;;;29.24;54.89;100586.50;2856508;82;21002;-66
2021/08/14 11:17:04;;;;;;;;;;;;;;;29.14;56.19;100576.17;2877209;82;20959;-64
2021/08/14 11:21:08;;;;;;;10.18;7.95;;;;;;;28.96;55.65;100588.66;2876213;81;20116;-63
2021/08/14 11:25:34;;;;;;;10.68;7.53;;;;;;;28.85;54.19;100547.37;2826225;81;21002;-63
2021/08/14 11:29:41;;;;;;;20.35;9.43;;;;;;;28.85;54.19;100547.37;2767194;85;21009;-60
2021/08/14 11:33:44;;;;;;;16.30;8.48;;;;;;;29.09;54.97;100569.23;2789587;84;21038;-60
2021/08/14 11:37:51;;;;;;;18.63;7.70;;;;;;;29.31;55.11;100565.81;2811740;83;21134;-61
2021/08/14 11:41:55;;;;;;;23.98;9.63;;;;;;;29.51;53.93;100564.02;2838906;83;21015;-60
2021/08/14 11:46:03;;;;;;;10.40;8.25;;;;;;;29.59;52.96;100547.19;2821532;83;21033;-60
2021/08/14 11:50:09;;;;;;;14.00;8.00;;;;;;;29.84;54.20;100547.85;2832641;82;21001;-62
2021/08/14 11:54:33;;;;;;;9.90;7.08;;;;;;;29.84;54.20;100547.85;2885181;82;21032;-60
2021/08/14 11:58:36;;;;;;;11.57;7.25;;;;;;;29.87;54.23;100543.23;2889846;82;21004;-61
2021/08/14 12:03:09;;;;;;;7.92;5.83;;;;;;;29.97;53.38;100534.34;2890271;82;21032;-61
2021/08/14 12:07:13;;;;;;;7.70;6.28;;;;;;;30.09;53.27;100528.27;2885099;81;20981;-61
2021/08/14 12:11:22;;;;;;;8.45;6.40;;;;;;;30.22;52.54;100521.60;2890029;82;21024;-61
2021/08/14 12:15:34;;;;;;;8.50;6.58;;;;;;;30.25;52.30;100514.23;2874700;81;21089;-62
2021/08/14 12:19:54;;;;;;;13.38;7.78;;;;;;;30.18;52.13;100512.22;2840997;83;21028;-60
2021/08/14 12:24:06;;;;;;;8.90;7.12;;;;;;;30.20;52.43;100508.16;2871646;82;21052;-60
2021/08/14 12:28:11;;;;;;;9.38;6.37;;;;;;;30.28;52.96;100504.16;2886675;82;21645;-62
2021/08/14 12:32:13;;;;;;;8.78;6.53;;;;;;;30.40;53.46;100506.78;2890171;82;21044;-61
2021/08/14 12:36:18;;;;;;;11.45;6.30;;;;;;;30.53;52.31;100500.62;2889781;81;21028;-60
2021/08/14 12:40:25;;;;;;;12.13;6.85;;;;;;;30.58;52.19;100493.28;2876195;81;21100;-62
2021/08/14 12:45:01;;;;;;;8.63;6.62;;;;;;;30.60;51.86;100485.63;2845809;82;21033;-61
2021/08/14 12:49:30;;;;;;;8.45;7.12;;;;;;;30.64;52.34;100475.81;2866391;82;20999;-63
2021/08/14 12:53:39;;;;;;;10.35;6.60;;;;;;;30.74;52.09;100466.06;2834393;83;21062;-62
2021/08/14 12:57:44;;;;;;;24.63;7.62;;;;;;;30.70;51.14;100467.67;2909601;80;21081;-60
2021/08/14 13:01:58;;;;;;;9.98;6.10;;;;;;;30.69;51.04;100463.27;2882403;81;20962;-62
2021/08/14 13:06:00;;;;;;;11.80;6.25;;;;;;;30.68;50.48;100458.30;2847188;83;21008;-62
2021/08/14 13:10:02;;;;;;;9.10;5.62;;;;;;;30.75;51.21;100442.45;2915478;81;21025;-61
2021/08/14 13:14:05;;;;;;;11.90;6.37;;;;;;;30.80;50.95;100434.82;2915536;81;21013;-62
2021/08/14 13:18:11;;;;;;;10.10;5.97;;;;;;;30.98;50.83;100439.67;2909135;81;21016;-62
2021/08/14 13:22:14;;;;;;;6.87;5.28;;;;;;;31.13;50.11;100442.58;2906905;81;21046;-63
2021/08/14 13:26:19;;;;;;;11.45;6.83;;;;;;;31.23;49.13;100435.01;2871967;82;21022;-62
2021/08/14 13:30:25;;;;;;;31.68;8.33;;;;;;;31.25;47.31;100427.33;2861943;82;21790;-63
2021/08/14 13:34:29;;;;;;;5.65;4.42;;;;;;;31.31;45.49;100427.65;2864352;81;21085;-63
2021/08/14 13:38:32;;;;;;;3.92;3.30;;;;;;;31.42;46.06;100423.63;2868216;83;21011;-63
2021/08/14 13:42:40;;;;;;;4.65;4.22;;;;;;;31.56;45.87;100419.34;2868185;81;21546;-62
2021/08/14 13:46:42;;;;;;;8.00;3.75;;;;;;;31.54;45.40;100424.81;2868086;81;21049;-62
2021/08/14 13:50:46;;;;;;;6.40;3.33;;;;;;;31.48;44.77;100425.31;2868000;83;21002;-61
2021/08/14 13:54:48;;;;;;;6.53;4.20;;;;;;;31.53;44.92;100421.78;2867521;81;21081;-62
2021/08/14 13:58:52;;;;;;;5.00;3.30;;;;;;;31.57;45.58;100414.66;2868036;83;21022;-61
2021/08/14 14:02:54;;;;;;;6.83;4.75;;;;;;;31.61;43.95;100414.41;2832097;81;21054;-62
2021/08/14 14:07:37;;;;;;;4.58;3.33;;;;;;;31.54;43.82;100411.88;2849143;81;21058;-62
2021/08/14 14:11:42;;;;;;;8.47;3.77;;;;;;;31.58;42.34;100402.05;2861671;83;21085;-63
2021/08/14 14:15:43;;;;;;;6.25;4.33;;;;;;;31.63;44.08;100399.32;2867521;81;21765;-62
2021/08/14 14:19:48;;;;;;;8.95;4.12;;;;;;;31.70;43.24;100396.34;2865912;83;21010;-62
2021/08/14 14:23:50;;;;;;;5.62;3.40;;;;;;;31.72;43.79;100401.03;2861020;82;21006;-61
2021/08/14 14:27:52;;;;;;;4.45;3.58;;;;;;;31.71;44.52;100395.78;2881056;82;20990;-62
2021/08/14 14:32:01;;;;;;;3.92;3.33;;;;;;;31.74;44.37;100397.47;2880699;82;21030;-62
2021/08/14 14:36:04;;;;;;;5.85;4.20;;;;;;;31.70;42.22;100395.50;2880313;82;20995;-61
2021/08/14 14:40:10;;;;;;;5.67;3.72;;;;;;;31.68;43.10;100390.81;2880035;82;20963;-62
2021/08/14 14:44:12;;;;;;;5.22;4.20;;;;;;;31.68;42.56;100394.94;2878147;82;21042;-63
2021/08/14 14:48:31;;;;;;;5.97;4.12;;;;;;;31.66;43.03;100395.76;2878004;82;20988;-63
2021/08/14 14:52:36;;;;;;;5.30;3.12;;;;;;;31.59;40.54;100387.73;2880206;81;20963;-62
2021/08/14 14:56:41;;;;;;;3.17;2.83;;;;;;;31.61;42.14;100381.42;2876679;80;29259;-63
2021/08/14 15:00:45;;;;;;;4.00;2.67;;;;;;;31.69;42.12;100381.48;2880833;82;20991;-62
2021/08/14 15:04:47;;;;;;;5.70;3.83;;;;;;;31.69;41.73;100380.95;2880374;82;21081;-62
2021/08/14 15:08:49;;;;;;;83.30;18.23;;;;;;;31.66;42.35;100377.36;2832426;84;21042;-62
2021/08/14 15:12:51;;;;;;;7.00;4.42;;;;;;;31.71;42.22;100366.38;2832483;82;21050;-60
2021/08/14 15:16:54;;;;;;;6.08;3.58;;;;;;;31.70;42.54;100362.52;2832094;83;21498;-60
2021/08/14 15:20:57;;;;;;;11.05;3.90;;;;;;;31.65;43.56;100359.20;2831823;84;21022;-61
2021/08/14 15:25:01;;;;;;;6.00;3.15;;;;;;;31.65;42.72;100349.59;2832298;84;21057;-61
2021/08/14 15:29:03;;;;;;;8.90;3.83;;;;;;;31.55;43.75;100342.64;2832270;84;21063;-61
2021/08/14 15:33:05;;;;;;;10.43;4.05;;;;;;;31.57;43.80;100339.08;2832458;84;21041;-60
2021/08/14 15:37:08;;;;;;;;;;;;;;;31.62;43.60;100333.59;2834206;84;21030;-59
2021/08/14 15:41:17;;;;;;;4.60;3.60;;;;;;;31.58;42.01;100340.73;2832023;82;20102;-59
2021/08/14 15:45:20;;;;;;;7.50;3.87;;;;;;;31.47;42.83;100339.30;2832398;84;20978;-62
2021/08/14 15:49:22;;;;;;;46.35;10.88;;;;;;;31.34;43.69;100343.31;2829738;82;21047;-60
2021/08/14 15:53:37;;;;;;;5.22;3.90;;;;;;;31.27;44.00;100337.79;2816126;84;20919;-60
2021/08/14 15:57:39;;;;;;;4.60;3.40;;;;;;;31.26;43.47;100339.70;2816199;84;21050;-61
2021/08/14 16:01:40;;;;;;;4.50;4.10;;;;;;;31.19;42.00;100336.33;2815888;84;20999;-59
2021/08/14 16:13:43;;;;;;;5.17;2.80;;;;;;;31.15;43.12;100321.44;2844457;82;21051;-60
2021/08/14 16:17:45;;;;;;;4.70;3.50;;;;;;;31.09;43.63;100329.36;2842857;82;20960;-60
2021/08/14 16:21:46;;;;;;;6.15;3.33;;;;;;;30.96;43.58;100323.77;2842958;84;20988;-60
2021/08/14 16:25:51;;;;;;;8.13;3.52;;;;;;;30.82;44.01;100323.38;2843108;82;21011;-60
2021/08/14 16:29:59;;;;;;;5.08;4.03;;;;;;;30.71;44.71;100316.41;2843632;84;20996;-61
2021/08/14 16:34:02;;;;;;;4.15;3.65;;;;;;;30.58;43.14;100312.70;2843203;82;21039;-60
2021/08/14 16:38:05;;;;;;;5.37;3.20;;;;;;;30.50;43.39;100315.37;2837384;84;20991;-60
2021/08/14 16:42:09;;;;;;;4.90;3.52;;;;;;;30.42;43.77;100307.06;2843600;82;20995;-61
2021/08/14 16:46:12;;;;;;;4.87;2.98;;;;;;;30.33;43.74;100307.22;2843052;84;21248;-60
2021/08/14 16:50:14;;;;;;;4.58;3.30;;;;;;;30.20;43.78;100299.70;2843249;83;20971;-59
2021/08/14 16:54:22;;;;;;;5.50;4.15;;;;;;;30.08;42.85;100299.55;2843401;84;20972;-60
2021/08/14 16:58:24;;;;;;;4.75;2.62;;;;;;;30.00;43.09;100300.23;2843486;82;20980;-60
2021/08/14 17:02:56;;;;;;;4.30;3.10;;;;;;;29.91;43.59;100297.12;2843509;84;20948;-60
2021/08/14 17:06:58;;;;;;;6.37;3.15;;;;;;;29.82;43.41;100290.96;2843637;84;21030;-59
2021/08/14 17:11:00;;;;;;;4.53;2.90;;;;;;;29.64;43.26;100290.19;2840222;82;20999;-59
2021/08/14 17:15:03;;;;;;;4.85;3.35;;;;;;;29.44;43.46;100282.53;2830271;84;21087;-60
2021/08/14 17:19:05;;;;;;;4.20;3.40;;;;;;;29.30;43.98;100289.69;2830298;84;21007;-59
2021/08/14 17:23:07;;;;;;;7.33;3.62;;;;;;;29.16;44.68;100293.32;2829927;82;20982;-61
2021/08/14 17:27:08;;;;;;;4.97;3.15;;;;;;;28.98;44.68;100291.64;2830147;82;21063;-60
2021/08/14 17:31:10;;;;;;;8.28;4.20;;;;;;;28.87;45.22;100285.17;2830183;83;20999;-60
2021/08/14 17:35:12;;;;;;;4.37;3.12;;;;;;;28.72;45.59;100284.91;2814679;84;21030;-59
2021/08/14 17:39:14;;;;;;;5.25;3.08;;;;;;;28.56;45.96;100286.00;2783044;85;21047;-59
2021/08/14 17:43:16;;;;;;;6.05;3.58;;;;;;;28.36;46.38;100284.55;2783075;85;20992;-60
2021/08/14 17:47:29;;;;;;;4.75;3.25;;;;;;;28.08;46.63;100287.52;2791519;84;20937;-60
2021/08/14 17:51:32;;;;;;;30.82;7.70;;;;;;;27.91;46.83;100283.92;2808756;84;20980;-60
2021/08/14 17:55:33;;;;;;;16.10;4.35;;;;;;;27.55;47.85;100247.09;2829843;84;20964;-60
2021/08/14 17:59:35;;;;;;;11.18;4.35;;;;;;;27.63;48.77;100288.23;2826849;84;20976;-60
2021/08/14 18:03:38;;;;;;;30.32;4.67;;;;;;;27.48;49.57;100283.23;2812961;84;21379;-60
2021/08/14 18:07:41;;;;;;;16.17;4.03;;;;;;;27.35;49.85;100277.48;2828139;84;21062;-60
2021/08/14 18:11:44;;;;;;;15.98;6.55;;;;;;;27.20;49.90;100281.52;2823749;82;20960;-60
2021/08/14 18:15:47;;;;;;;48.83;10.70;;;;;;;27.02;50.50;100277.52;2810211;84;21031;-62
2021/08/14 18:19:49;;;;;;;15.53;4.92;;;;;;;26.80;50.21;100280.78;2795595;85;20964;-61
2021/08/14 18:23:50;;;;;;;25.10;7.25;;;;;;;26.50;50.32;100285.73;2825009;82;21024;-61
2021/08/14 18:27:52;;;;;;;12.70;4.47;;;;;;;26.25;51.31;100286.71;2832116;82;21039;-61
2021/08/14 18:31:54;;;;;;;8.03;3.72;;;;;;;26.10;52.03;100282.45;2798445;84;21059;-62
2021/08/14 18:35:58;;;;;;;18.23;7.97;;;;;;;25.98;51.55;100280.22;2829055;83;20964;-61
2021/08/14 18:40:04;;;;;;;20.37;8.08;;;;;;;25.84;52.09;100282.80;2823021;84;20995;-59
2021/08/14 18:44:04;;;;;;;12.98;6.53;;;;;;;25.70;52.82;100284.30;2809151;82;20988;-60
2021/08/14 18:48:07;;;;;;;8.88;4.92;;;;;;;25.52;53.15;100283.77;2830541;84;20968;-60
2021/08/14 18:52:08;;;;;;;46.02;9.73;;;;;;;25.40;53.47;100283.66;2811740;84;21039;-59
2021/08/14 18:56:10;;;;;;;21.68;10.08;;;;;;;25.19;55.09;100284.37;2818737;84;20964;-59